Strona główna
METAR-TAF:

METAR-TAF

Lotnisko :

Port lotniczy Bornholm

Rønne, Dania

Szerokość geograficzna: 55-04N, Długość geograficzna: 014-45E, wysokość: 16 m

Aktualna obserwacja pogody

Raport powstał 11 minut temu, godzina 09:50 UTC
Wiatr 11 kt od zachód
Temperatura 20°C
Wilgotność 64%
Ciśnienie 1020 hPa
Widzialność 10 km lub więcej

METAR: EKRN 180950Z AUTO 27011KT 9999NDV FEW028/// 20/13 Q1020

czas: 12:01 (10:01 UTC)

Prognoza

Raport powstał 1 godzina i 39 minut temu, godzina 08:22 UTC
Prognoza ważna od 18 godzina 09 UTC do 18 godzina 18 UTC
Wiatr 10 kt od zachodnio-południowy zachód
Widzialność 10 km lub więcej
Mało chmury na wysokości 2500 ft

TAF: EKRN 180822Z 1809/1818 25010KT 9999 FEW025

Obserwacja i prognoza pogody dla ponad 4000 lotnisk (raport METAR i TAF).

Dostępne stacje oznaczono żółtymi i czerwonymi punktami na mapie.

Najedź kursorem aby zobaczyć nazwę stacji.

Kliknij aby zobaczyć obserwacje i prognozy pogody.

Aby zmienić mapę: kliknij na zielony przycisk z czarnym krzyżykiem, aby powiększyć; na zielony przycisk z myślnikiem, aby pomniejszyć; na zielone strzałki, aby przejść do map sąsiednich.


METAR-TAF: